Time;durP1;ratioP1;P1;durP2;ratioP2;P2;SDS_P1;SDS_P2;PMS_P1;PMS_P2;Temp;Humidity;BMP_temperature;BMP_pressure;BME280_temperature;BME280_humidity;BME280_pressure;Samples;Min_cycle;Max_cycle;Signal;HPM_P1;HPM_P2
2020/12/16 05:20:27;;;;;;;1.55;1.40;;;1.40;99.90;;;;;;4872989;29;20059;-72
2020/12/16 05:23:02;;;;;;;1.65;1.52;;;1.40;99.90;;;;;;4878737;29;20049;-72
2020/12/16 05:25:28;;;;;;;1.45;1.35;;;1.50;99.90;;;;;;4878406;29;20396;-72
2020/12/16 05:27:54;;;;;;;1.48;1.38;;;1.40;99.90;;;;;;4878290;29;20477;-72
2020/12/16 05:30:20;;;;;;;1.23;1.13;;;1.40;99.90;;;;;;4878275;29;20098;-73
2020/12/16 05:32:46;;;;;;;1.40;1.30;;;1.40;99.90;;;;;;4872017;29;20432;-81
2020/12/16 05:35:36;;;;;;;1.20;1.10;;;1.40;99.90;;;;;;4858574;29;20037;-86
2020/12/16 05:38:09;;;;;;;1.38;1.25;;;1.50;99.90;;;;;;4859987;29;20025;-81
2020/12/16 05:40:37;;;;;;;1.08;0.98;;;1.40;99.90;;;;;;4872798;29;20032;-77
2020/12/16 05:43:04;;;;;;;2.60;1.55;;;1.60;99.90;;;;;;4859732;29;20021;-69
2020/12/16 05:45:36;;;;;;;1.13;1.02;;;1.80;99.90;;;;;;4859568;29;20026;-72
2020/12/16 05:48:10;;;;;;;1.27;1.13;;;1.80;99.90;;;;;;4867579;29;20089;-73
2020/12/16 05:50:40;;;;;;;1.25;1.15;;;1.80;99.90;;;;;;4866026;29;20049;-75
2020/12/16 05:53:14;;;;;;;1.20;1.10;;;1.80;99.90;;;;;;4876367;29;20554;-75
2020/12/16 05:55:40;;;;;;;2.17;1.40;;;1.80;99.90;;;;;;4877080;29;20036;-77
2020/12/16 05:58:14;;;;;;;140.38;43.67;;;1.80;99.90;;;;;;4876190;29;20088;-82
2020/12/16 06:00:45;;;;;;;6.07;2.80;;;1.80;99.90;;;;;;4869862;29;20408;-78
2020/12/16 06:03:18;;;;;;;2.25;1.50;;;1.80;99.90;;;;;;4867833;29;20034;-79
2020/12/16 06:05:47;;;;;;;1.30;1.20;;;1.80;99.90;;;;;;4872378;29;20033;-78
2020/12/16 06:08:13;;;;;;;48.78;22.45;;;1.80;99.90;;;;;;4869211;29;20037;-79
2020/12/16 06:10:42;;;;;;;5.57;3.53;;;1.90;99.90;;;;;;4867875;29;20033;-78
2020/12/16 06:13:12;;;;;;;0.98;0.90;;;1.90;99.90;;;;;;4867939;29;20036;-79
2020/12/16 06:16:05;;;;;;;0.90;0.90;;;1.90;99.90;;;;;;4864582;29;20033;-79
2020/12/16 06:18:43;;;;;;;1.17;1.00;;;1.90;99.90;;;;;;4876139;29;20527;-82
2020/12/16 06:21:11;;;;;;;0.82;0.82;;;1.90;99.90;;;;;;4886187;29;20400;-87
2020/12/16 06:23:38;;;;;;;4.00;2.72;;;1.90;99.90;;;;;;4892208;29;20095;-83
2020/12/16 06:26:06;;;;;;;3.80;2.95;;;1.90;99.90;;;;;;4870688;29;20037;-87
2020/12/16 06:28:32;;;;;;;1.63;1.52;;;1.90;99.90;;;;;;4874086;29;20032;-77
2020/12/16 06:31:00;;;;;;;1.33;1.05;;;1.90;99.90;;;;;;4859162;29;20053;-80
2020/12/16 06:33:33;;;;;;;2.33;1.95;;;2.00;99.90;;;;;;4872295;29;20068;-80
2020/12/16 06:36:02;;;;;;;2.55;2.05;;;2.00;99.90;;;;;;4878058;29;20433;-80
2020/12/16 06:38:28;;;;;;;1.42;1.20;;;2.00;99.90;;;;;;4864994;29;20031;-80
2020/12/16 06:40:56;;;;;;;1.13;1.00;;;2.00;99.90;;;;;;4877529;29;20029;-80
2020/12/16 06:43:31;;;;;;;1.35;1.25;;;2.00;99.90;;;;;;4866394;29;20125;-82
2020/12/16 06:45:57;;;;;;;1.42;1.33;;;2.00;99.90;;;;;;4877009;29;20026;-82
2020/12/16 06:48:37;;;;;;;1.42;1.33;;;1.90;99.90;;;;;;4877690;29;20102;-81
2020/12/16 06:51:23;;;;;;;1.30;1.20;;;1.90;99.90;;;;;;4877852;29;20112;-82
2020/12/16 06:54:02;;;;;;;1.13;1.00;;;1.90;99.90;;;;;;4877383;29;20056;-81
2020/12/16 06:56:28;;;;;;;0.88;0.88;;;1.90;99.90;;;;;;4871426;29;20033;-90
2020/12/16 06:58:54;;;;;;;1.40;1.25;;;1.80;99.90;;;;;;4861738;29;20038;-91
2020/12/16 07:01:20;;;;;;;1.15;1.05;;;1.80;99.90;;;;;;4868049;29;20028;-93
2020/12/16 07:03:46;;;;;;;1.10;1.10;;;1.80;99.90;;;;;;4878350;29;20401;-85
2020/12/16 07:06:31;;;;;;;1.10;1.00;;;1.90;99.90;;;;;;4864433;29;20053;-85
2020/12/16 07:09:20;;;;;;;1.30;1.20;;;2.30;99.90;;;;;;4880069;29;20513;-85
2020/12/16 07:11:55;;;;;;;1.17;1.08;;;2.30;99.90;;;;;;4882347;29;20093;-89
2020/12/16 07:14:24;;;;;;;1.42;1.02;;;2.30;99.90;;;;;;4868643;29;20045;-77
2020/12/16 07:16:49;;;;;;;1.83;1.00;;;2.30;99.90;;;;;;4881144;29;20436;-80
2020/12/16 07:19:25;;;;;;;1.40;1.30;;;2.60;99.90;;;;;;4867595;29;20060;-80
2020/12/16 07:21:51;;;;;;;1.70;1.23;;;3.20;99.90;;;;;;4867341;29;20025;-84
2020/12/16 07:24:17;;;;;;;1.45;1.20;;;3.10;99.90;;;;;;4870058;29;20101;-80
2020/12/16 07:26:50;;;;;;;4.50;3.28;;;2.90;99.90;;;;;;4866339;29;20025;-79
2020/12/16 07:29:33;;;;;;;1.45;1.15;;;2.70;99.90;;;;;;4863864;29;20103;-81
2020/12/16 07:32:07;;;;;;;0.80;0.80;;;2.60;99.90;;;;;;4863561;29;20033;-87
2020/12/16 07:34:57;;;;;;;1.52;1.02;;;2.50;99.90;;;;;;4869156;29;20041;-86
2020/12/16 07:37:30;;;;;;;1.40;1.20;;;2.40;99.90;;;;;;4870611;29;20354;-88
2020/12/16 07:40:04;;;;;;;1.65;1.15;;;2.30;99.90;;;;;;4869499;29;20466;-87
2020/12/16 07:42:34;;;;;;;2.15;1.20;;;2.30;99.90;;;;;;4862062;29;20026;-87
2020/12/16 07:45:05;;;;;;;2.85;1.52;;;2.30;99.90;;;;;;4863903;29;20033;-85
2020/12/16 07:47:31;;;;;;;1.95;1.20;;;2.20;99.90;;;;;;4862253;29;20643;-85
2020/12/16 07:49:57;;;;;;;1.73;1.23;;;2.20;99.90;;;;;;4868893;29;20030;-80
2020/12/16 07:52:25;;;;;;;1.38;1.20;;;2.10;99.90;;;;;;4864851;29;20037;-80
2020/12/16 07:54:51;;;;;;;2.40;1.58;;;2.10;99.90;;;;;;4861519;29;20033;-81
2020/12/16 07:57:17;;;;;;;1.73;1.30;;;2.10;99.90;;;;;;4863209;29;20033;-80
2020/12/16 07:59:42;;;;;;;1.33;1.00;;;2.20;99.90;;;;;;4862436;29;20161;-81
2020/12/16 08:02:14;;;;;;;1.40;1.30;;;2.20;99.90;;;;;;4860256;29;20395;-84
2020/12/16 08:04:42;;;;;;;1.23;1.13;;;2.10;99.90;;;;;;4867162;29;20454;-80
2020/12/16 08:07:15;;;;;;;1.10;1.00;;;2.10;99.90;;;;;;4865719;29;20062;-80
2020/12/16 08:09:56;;;;;;;0.90;0.90;;;2.10;99.90;;;;;;4867976;29;20026;-75
2020/12/16 08:12:23;;;;;;;1.20;1.10;;;2.10;99.90;;;;;;4863925;29;20045;-75
2020/12/16 08:14:50;;;;;;;1.75;1.65;;;2.10;99.90;;;;;;4870412;29;20408;-76
2020/12/16 08:17:16;;;;;;;1.50;1.40;;;2.00;99.90;;;;;;4871703;29;20021;-75
2020/12/16 08:19:42;;;;;;;1.40;1.20;;;2.00;99.90;;;;;;4867494;29;20108;-73
2020/12/16 08:22:12;;;;;;;1.40;1.30;;;2.00;99.90;;;;;;4862172;29;20017;-73
2020/12/16 08:24:38;;;;;;;1.50;1.38;;;1.90;99.90;;;;;;4863911;29;20105;-73
2020/12/16 08:27:04;;;;;;;1.38;1.27;;;1.90;99.90;;;;;;4873416;29;20505;-73
2020/12/16 08:29:30;;;;;;;1.30;1.20;;;1.80;99.90;;;;;;4865255;29;20065;-73
2020/12/16 08:31:56;;;;;;;2.00;1.80;;;1.80;99.90;;;;;;4872021;29;20394;-73
2020/12/16 08:34:23;;;;;;;1.75;1.30;;;1.80;99.90;;;;;;4872584;29;20041;-73
2020/12/16 08:36:51;;;;;;;1.65;1.42;;;1.80;99.90;;;;;;4862007;29;20315;-73
2020/12/16 08:39:24;;;;;;;1.25;1.15;;;1.80;99.90;;;;;;4884613;29;20124;-74
2020/12/16 08:41:54;;;;;;;1.52;1.40;;;1.80;99.90;;;;;;4872448;29;20021;-73
2020/12/16 08:44:23;;;;;;;;;;;1.80;99.90;;;;;;4869552;29;20048;-75
2020/12/16 08:46:50;;;;;;;1.40;1.27;;;1.70;99.90;;;;;;4880359;29;19912;-75
2020/12/16 08:49:22;;;;;;;1.95;1.58;;;1.60;99.90;;;;;;4882088;29;20489;-75
2020/12/16 08:51:48;;;;;;;1.92;1.67;;;1.60;99.90;;;;;;4881106;29;20108;-75
2020/12/16 08:54:22;;;;;;;1.83;1.73;;;1.60;99.90;;;;;;4885942;29;20511;-75
2020/12/16 08:56:58;;;;;;;3.03;2.17;;;1.60;99.90;;;;;;4888880;29;20164;-75
2020/12/16 08:59:29;;;;;;;2.20;1.95;;;1.60;99.90;;;;;;4884268;29;20036;-72
2020/12/16 09:02:06;;;;;;;2.90;2.00;;;1.60;99.90;;;;;;4880256;29;20033;-73
2020/12/16 09:04:37;;;;;;;1.75;1.58;;;1.60;99.90;;;;;;4869233;29;20044;-75
2020/12/16 09:07:07;;;;;;;3.40;2.20;;;1.50;99.90;;;;;;4881350;29;20076;-74
2020/12/16 09:09:38;;;;;;;2.88;2.15;;;1.50;99.90;;;;;;4887362;29;20025;-77
2020/12/16 09:12:10;;;;;;;2.25;1.83;;;1.60;99.90;;;;;;4875742;29;20026;-74
2020/12/16 09:14:36;;;;;;;2.25;1.77;;;1.50;99.90;;;;;;4878797;29;20033;-74
2020/12/16 09:17:08;;;;;;;2.67;1.70;;;1.60;99.90;;;;;;4875316;29;20384;-74
2020/12/16 09:19:35;;;;;;;3.28;2.28;;;1.90;99.90;;;;;;4878739;29;20057;-74
2020/12/16 09:22:02;;;;;;;2.10;1.70;;;1.60;99.90;;;;;;4884470;29;20032;-74
2020/12/16 09:24:28;;;;;;;2.30;1.85;;;1.50;99.90;;;;;;4873992;29;20044;-74
2020/12/16 09:26:57;;;;;;;2.50;1.80;;;1.50;99.90;;;;;;4876022;29;20028;-74
2020/12/16 09:29:28;;;;;;;2.83;1.80;;;1.50;99.90;;;;;;4868523;29;20036;-72
2020/12/16 09:32:09;;;;;;;3.20;2.20;;;1.50;99.90;;;;;;4864777;29;20040;-80
2020/12/16 09:34:37;;;;;;;3.42;2.08;;;1.70;99.90;;;;;;4869039;29;20609;-84
2020/12/16 09:37:10;;;;;;;2.58;2.22;;;1.60;99.90;;;;;;4873227;29;20065;-79
2020/12/16 09:39:36;;;;;;;3.50;2.50;;;1.50;99.90;;;;;;4873976;29;20029;-79
2020/12/16 09:42:08;;;;;;;2.67;2.10;;;1.50;99.90;;;;;;4868532;29;20473;-79
2020/12/16 09:44:34;;;;;;;3.22;2.22;;;1.40;99.90;;;;;;4863385;29;20037;-75
2020/12/16 09:47:24;;;;;;;3.50;2.28;;;1.50;99.90;;;;;;4872607;29;20036;-75
2020/12/16 09:50:01;;;;;;;2.25;2.05;;;1.50;99.90;;;;;;4862909;29;20116;-75
2020/12/16 09:52:35;;;;;;;4.80;2.80;;;1.40;99.90;;;;;;4875943;29;20057;-74
2020/12/16 09:55:12;;;;;;;3.95;2.60;;;1.40;99.90;;;;;;4868550;29;20059;-74
2020/12/16 09:57:38;;;;;;;5.38;3.45;;;1.40;99.90;;;;;;4868376;29;20469;-75
2020/12/16 10:00:05;;;;;;;3.25;2.58;;;1.40;99.90;;;;;;4872268;29;20770;-75
2020/12/16 10:02:31;;;;;;;3.92;2.47;;;1.30;99.90;;;;;;4875831;29;20026;-76
2020/12/16 10:04:56;;;;;;;4.22;3.40;;;1.30;99.90;;;;;;4861502;29;20032;-74
2020/12/16 10:07:22;;;;;;;5.38;3.28;;;1.30;99.90;;;;;;4861384;29;20026;-74
2020/12/16 10:09:54;;;;;;;4.43;3.33;;;1.30;99.90;;;;;;4864923;29;20044;-76
2020/12/16 10:12:24;;;;;;;3.80;2.85;;;1.30;99.90;;;;;;4861884;29;20037;-75
2020/12/16 10:14:50;;;;;;;3.60;2.80;;;1.20;99.90;;;;;;4859182;29;20536;-76
2020/12/16 10:17:20;;;;;;;4.63;2.85;;;1.20;99.90;;;;;;4871930;29;20105;-74
2020/12/16 10:19:45;;;;;;;6.03;2.60;;;1.00;99.90;;;;;;4872502;29;20052;-74
2020/12/16 10:22:11;;;;;;;3.97;2.58;;;1.00;99.90;;;;;;4877845;29;20438;-74
2020/12/16 10:24:37;;;;;;;3.72;2.40;;;0.90;99.90;;;;;;4881048;29;20033;-74
2020/12/16 10:27:03;;;;;;;3.45;2.33;;;1.00;99.90;;;;;;4876340;29;20032;-74
2020/12/16 10:29:28;;;;;;;4.38;3.00;;;0.90;99.90;;;;;;4868810;29;20074;-74
2020/12/16 10:31:54;;;;;;;3.55;2.58;;;0.80;99.90;;;;;;4872199;29;20029;-74
2020/12/16 10:34:20;;;;;;;3.75;2.90;;;0.70;99.90;;;;;;4866517;29;20037;-74
2020/12/16 10:36:50;;;;;;;3.75;2.95;;;0.70;99.90;;;;;;4864671;29;20120;-74
2020/12/16 10:39:17;;;;;;;4.32;2.55;;;0.70;99.90;;;;;;4865205;29;20577;-74
2020/12/16 10:41:47;;;;;;;5.18;2.60;;;0.70;99.90;;;;;;4865782;29;20037;-74
2020/12/16 10:44:13;;;;;;;3.15;2.40;;;0.70;99.90;;;;;;4875291;29;20108;-74
2020/12/16 10:46:44;;;;;;;5.60;2.70;;;0.70;99.90;;;;;;4871625;29;20121;-74
2020/12/16 10:49:09;;;;;;;3.72;2.85;;;0.70;99.90;;;;;;4868202;29;20112;-74
2020/12/16 10:51:35;;;;;;;4.88;2.95;;;0.70;99.90;;;;;;4871771;29;20529;-74
2020/12/16 10:54:01;;;;;;;5.00;3.10;;;0.60;99.90;;;;;;4870055;29;20037;-75
2020/12/16 10:56:27;;;;;;;4.22;2.70;;;0.60;99.90;;;;;;4865328;29;20502;-75
2020/12/16 10:58:52;;;;;;;5.25;3.40;;;0.60;99.90;;;;;;4878190;29;20401;-74
2020/12/16 11:01:18;;;;;;;4.13;2.58;;;0.60;99.90;;;;;;4886101;29;20025;-78
2020/12/16 11:03:44;;;;;;;2.80;2.35;;;0.60;99.90;;;;;;4878268;29;20050;-74
2020/12/16 11:06:12;;;;;;;4.72;2.67;;;0.70;99.90;;;;;;4883729;29;20393;-74
2020/12/16 11:08:38;;;;;;;3.40;2.60;;;0.70;99.90;;;;;;4887434;29;20017;-75
2020/12/16 11:11:04;;;;;;;2.50;1.95;;;0.70;99.90;;;;;;4863339;29;20029;-76
2020/12/16 11:13:29;;;;;;;4.18;2.22;;;0.70;99.90;;;;;;4877402;29;20041;-76
2020/12/16 11:15:55;;;;;;;2.70;2.03;;;0.60;99.90;;;;;;4870769;29;20025;-77
2020/12/16 11:18:22;;;;;;;3.30;2.28;;;0.50;99.90;;;;;;4883192;29;20531;-74
2020/12/16 11:20:47;;;;;;;1.65;1.48;;;0.50;99.90;;;;;;4884958;29;20057;-78
2020/12/16 11:23:15;;;;;;;2.53;2.17;;;0.60;99.90;;;;;;4882798;29;20056;-79
2020/12/16 11:25:41;;;;;;;3.10;2.35;;;0.60;99.90;;;;;;4885299;29;20082;-76
2020/12/16 11:28:07;;;;;;;2.20;1.90;;;0.60;99.90;;;;;;4880944;29;20029;-77
2020/12/16 11:30:32;;;;;;;2.13;1.65;;;0.60;99.90;;;;;;4867243;29;20581;-77
2020/12/16 11:32:58;;;;;;;3.28;2.28;;;0.50;99.90;;;;;;4870407;29;20030;-79
2020/12/16 11:35:24;;;;;;;1.88;1.65;;;0.50;99.90;;;;;;4861841;29;20545;-76
2020/12/16 11:37:49;;;;;;;5.15;1.88;;;0.60;99.90;;;;;;4861995;29;20077;-86
2020/12/16 11:40:16;;;;;;;2.85;1.75;;;0.60;99.90;;;;;;4874626;29;20029;-82
2020/12/16 11:42:42;;;;;;;2.05;1.70;;;1.20;99.90;;;;;;4861786;29;20022;-80
2020/12/16 11:45:09;;;;;;;2.28;1.85;;;1.60;99.90;;;;;;4861484;29;20033;-76
2020/12/16 11:47:34;;;;;;;1.85;1.65;;;1.30;99.90;;;;;;4861545;29;20030;-80
2020/12/16 11:50:00;;;;;;;3.95;1.77;;;1.20;99.90;;;;;;4861606;29;20097;-77
2020/12/16 11:52:26;;;;;;;3.42;2.20;;;0.90;99.90;;;;;;4863804;29;20036;-72
2020/12/16 11:54:52;;;;;;;2.78;2.00;;;0.70;99.90;;;;;;4864699;29;20545;-74
2020/12/16 11:57:22;;;;;;;3.42;2.30;;;0.60;99.90;;;;;;4868691;29;20026;-74
2020/12/16 11:59:49;;;;;;;3.05;2.63;;;0.60;99.90;;;;;;4863391;29;20085;-74
2020/12/16 12:02:16;;;;;;;3.42;2.50;;;0.50;99.90;;;;;;4868023;29;20034;-72
2020/12/16 12:04:42;;;;;;;3.53;2.33;;;0.40;99.90;;;;;;4868658;29;20044;-74
2020/12/16 12:07:08;;;;;;;3.03;2.10;;;0.40;99.90;;;;;;4863992;29;20386;-75
2020/12/16 12:09:34;;;;;;;3.30;2.55;;;0.30;99.90;;;;;;4867842;29;20025;-74
2020/12/16 12:12:00;;;;;;;6.38;3.33;;;0.30;99.90;;;;;;4881032;29;20036;-74
2020/12/16 12:14:28;;;;;;;3.53;2.42;;;0.30;99.90;;;;;;4870675;29;20038;-75
2020/12/16 12:16:54;;;;;;;4.30;2.63;;;0.40;99.90;;;;;;4868383;29;20489;-74
2020/12/16 12:19:20;;;;;;;6.60;3.28;;;0.40;99.90;;;;;;4869099;29;20065;-74
2020/12/16 12:21:47;;;;;;;4.30;3.38;;;0.30;99.90;;;;;;4877093;29;20378;-74
2020/12/16 12:24:13;;;;;;;4.35;2.83;;;0.30;99.90;;;;;;4872495;29;20032;-74
2020/12/16 12:26:39;;;;;;;4.47;3.22;;;0.40;99.90;;;;;;4869586;29;20025;-75
2020/12/16 12:29:05;;;;;;;4.60;2.60;;;0.40;99.90;;;;;;4891891;29;20037;-74
2020/12/16 12:31:31;;;;;;;6.28;3.38;;;0.40;99.90;;;;;;4867745;29;20041;-76
2020/12/16 12:33:57;;;;;;;3.80;2.88;;;0.40;99.90;;;;;;4875295;29;20025;-80
2020/12/16 12:36:22;;;;;;;6.00;2.28;;;0.30;99.90;;;;;;4874527;29;20136;-79
2020/12/16 12:38:48;;;;;;;5.70;3.40;;;1.20;99.90;;;;;;4885900;29;20104;-77
2020/12/16 12:41:17;;;;;;;4.63;3.45;;;2.20;99.90;;;;;;4875964;29;20104;-82
2020/12/16 12:43:43;;;;;;;3.70;2.53;;;1.90;99.90;;;;;;4886132;29;20033;-80
2020/12/16 12:46:09;;;;;;;4.15;2.28;;;2.00;99.90;;;;;;4873870;29;20034;-80
2020/12/16 12:48:35;;;;;;;4.90;3.15;;;2.20;99.90;;;;;;4884890;29;20032;-79
2020/12/16 12:51:01;;;;;;;4.10;2.65;;;3.70;99.90;;;;;;4883288;29;20013;-79
2020/12/16 12:53:27;;;;;;;3.38;2.47;;;4.40;99.90;;;;;;4881002;29;20032;-79
2020/12/16 12:55:53;;;;;;;2.55;2.17;;;4.70;99.90;;;;;;4885819;29;20044;-80
2020/12/16 12:58:18;;;;;;;3.28;2.53;;;4.90;99.90;;;;;;4879071;29;20025;-79
2020/12/16 13:00:44;;;;;;;4.28;2.97;;;5.00;99.90;;;;;;4870453;29;20025;-76
2020/12/16 13:03:10;;;;;;;3.13;2.40;;;4.50;99.90;;;;;;4884991;29;20046;-79
2020/12/16 13:05:35;;;;;;;4.95;2.72;;;3.70;99.90;;;;;;4884061;29;20115;-78
2020/12/16 13:08:01;;;;;;;4.22;2.35;;;3.40;99.90;;;;;;4880945;29;20025;-76
2020/12/16 13:10:27;;;;;;;4.10;2.60;;;3.20;99.90;;;;;;4876922;29;20033;-78
2020/12/16 13:12:53;;;;;;;4.13;2.95;;;3.50;99.90;;;;;;4878545;29;20075;-79
2020/12/16 13:15:18;;;;;;;3.67;3.00;;;2.90;99.90;;;;;;4885822;29;20029;-78
2020/12/16 13:17:44;;;;;;;4.13;2.90;;;2.40;99.90;;;;;;4888939;29;20024;-78
2020/12/16 13:20:11;;;;;;;6.03;3.03;;;2.00;99.90;;;;;;4884826;29;20591;-79
2020/12/16 13:22:37;;;;;;;4.63;3.28;;;1.80;99.90;;;;;;4880725;29;20024;-79
2020/12/16 13:25:03;;;;;;;5.32;3.15;;;1.60;99.90;;;;;;4876276;29;20044;-79
2020/12/16 13:27:29;;;;;;;4.93;3.47;;;1.50;99.90;;;;;;4864997;29;20026;-92
2020/12/16 13:29:54;;;;;;;5.00;3.33;;;1.60;99.90;;;;;;4861194;29;20390;-90
2020/12/16 13:32:20;;;;;;;5.15;3.72;;;1.60;99.90;;;;;;4869837;29;20033;-92
2020/12/16 13:34:47;;;;;;;6.65;3.90;;;1.60;99.90;;;;;;4863520;29;20049;-79
2020/12/16 13:37:14;;;;;;;6.00;4.13;;;1.50;99.90;;;;;;4874256;29;20017;-79
2020/12/16 13:39:40;;;;;;;4.43;3.33;;;1.40;99.90;;;;;;4875028;29;20033;-79
2020/12/16 13:42:06;;;;;;;5.40;3.42;;;1.30;99.90;;;;;;4866776;29;20037;-80
2020/12/16 13:44:32;;;;;;;7.03;3.75;;;1.20;99.90;;;;;;4881613;29;20491;-80
2020/12/16 13:46:57;;;;;;;5.07;3.35;;;1.20;99.90;;;;;;4867223;29;20088;-80
2020/12/16 13:49:23;;;;;;;8.90;4.40;;;1.20;99.90;;;;;;4870180;29;20485;-80
2020/12/16 13:51:49;;;;;;;6.05;3.47;;;1.00;99.90;;;;;;4868895;29;20090;-81
2020/12/16 13:54:14;;;;;;;6.05;4.10;;;1.00;99.90;;;;;;4878293;29;20111;-81
2020/12/16 13:56:40;;;;;;;7.55;4.65;;;0.90;99.90;;;;;;4864205;29;20049;-83
2020/12/16 13:59:06;;;;;;;6.68;4.78;;;0.90;99.90;;;;;;4866104;29;20596;-83
2020/12/16 14:01:32;;;;;;;7.72;5.25;;;0.80;99.90;;;;;;4865660;29;20116;-82
2020/12/16 14:03:58;;;;;;;5.82;3.97;;;0.80;99.90;;;;;;4870741;29;20100;-82
2020/12/16 14:06:24;;;;;;;5.97;4.10;;;0.80;99.90;;;;;;4861610;29;20397;-83
2020/12/16 14:08:51;;;;;;;4.97;3.75;;;0.80;99.90;;;;;;4862168;29;20176;-82
2020/12/16 14:11:20;;;;;;;6.30;4.53;;;0.80;99.90;;;;;;4863489;29;20081;-80
2020/12/16 14:13:50;;;;;;;6.13;4.15;;;0.80;99.90;;;;;;4870684;29;20509;-80
2020/12/16 14:16:17;;;;;;;5.65;4.15;;;0.80;99.90;;;;;;4876448;29;20513;-83
2020/12/16 14:18:43;;;;;;;5.80;3.45;;;0.80;99.90;;;;;;4871829;29;20037;-81
2020/12/16 14:21:10;;;;;;;5.57;3.55;;;0.80;99.90;;;;;;4866327;29;20059;-85
2020/12/16 14:23:37;;;;;;;5.80;3.90;;;0.80;99.90;;;;;;4863189;29;20108;-86
2020/12/16 14:26:03;;;;;;;7.22;3.88;;;0.70;99.90;;;;;;4865393;29;20036;-85
2020/12/16 14:28:30;;;;;;;6.53;4.00;;;0.70;99.90;;;;;;4869800;29;20032;-85
2020/12/16 14:30:55;;;;;;;6.28;4.10;;;0.70;99.90;;;;;;4864105;29;20052;-84
2020/12/16 14:33:22;;;;;;;4.65;3.40;;;0.60;99.90;;;;;;4864932;29;20061;-80
2020/12/16 14:35:48;;;;;;;5.40;3.63;;;0.60;99.90;;;;;;4867117;29;20068;-82
2020/12/16 14:38:14;;;;;;;5.53;3.80;;;0.60;99.90;;;;;;4868244;29;20057;-80
2020/12/16 14:40:40;;;;;;;7.10;4.45;;;0.60;99.90;;;;;;4868926;29;20059;-80
2020/12/16 14:43:06;;;;;;;5.65;3.75;;;0.50;99.90;;;;;;4867018;29;20024;-76
2020/12/16 14:45:32;;;;;;;5.40;3.92;;;0.50;99.90;;;;;;4866948;29;20111;-80
2020/12/16 14:47:58;;;;;;;5.40;3.60;;;0.40;99.90;;;;;;4866880;29;20101;-80
2020/12/16 14:50:24;;;;;;;11.15;5.28;;;0.40;99.90;;;;;;4869240;29;20116;-80
2020/12/16 14:52:50;;;;;;;8.50;4.90;;;0.40;99.90;;;;;;4867516;29;20108;-80
2020/12/16 14:55:18;;;;;;;7.13;4.40;;;0.40;99.90;;;;;;4867140;29;20545;-81
2020/12/16 14:57:47;;;;;;;6.32;4.07;;;0.40;99.90;;;;;;4865292;29;20021;-80
2020/12/16 15:00:15;;;;;;;5.00;3.28;;;0.30;99.90;;;;;;4863067;29;20603;-80
2020/12/16 15:02:41;;;;;;;5.38;3.50;;;0.20;99.90;;;;;;4862529;29;20109;-80
2020/12/16 15:05:07;;;;;;;5.55;3.30;;;0.10;99.90;;;;;;4866869;29;20613;-80
2020/12/16 15:07:33;;;;;;;4.65;3.20;;;0.20;99.90;;;;;;4868394;29;20033;-80
2020/12/16 15:09:59;;;;;;;6.25;3.40;;;0.10;99.90;;;;;;4865166;29;20093;-80
2020/12/16 15:12:25;;;;;;;6.65;4.03;;;0.10;99.90;;;;;;4869449;29;20030;-82
2020/12/16 15:14:52;;;;;;;5.40;3.63;;;0.10;99.90;;;;;;4865514;29;20075;-79
2020/12/16 15:17:19;;;;;;;5.85;3.85;;;0.10;99.90;;;;;;4862609;29;20026;-80
2020/12/16 15:19:45;;;;;;;4.68;3.20;;;0.10;99.90;;;;;;4864854;29;20060;-80
2020/12/16 15:22:11;;;;;;;4.95;3.63;;;0.10;99.90;;;;;;4869116;29;20025;-80
2020/12/16 15:24:37;;;;;;;5.45;3.25;;;0.10;99.90;;;;;;4865627;29;20389;-80
2020/12/16 15:27:04;;;;;;;6.75;3.40;;;0.10;99.90;;;;;;4860589;29;20505;-80
2020/12/16 15:29:30;;;;;;;6.40;3.60;;;0.10;99.90;;;;;;4863757;29;20699;-80
2020/12/16 15:31:56;;;;;;;5.78;3.78;;;0.10;99.90;;;;;;4861467;29;20161;-80
2020/12/16 15:34:23;;;;;;;5.60;3.88;;;0.10;99.90;;;;;;4862429;29;20406;-80
2020/12/16 15:36:58;;;;;;;6.07;3.42;;;0.20;99.90;;;;;;4861845;29;20033;-80
2020/12/16 15:39:25;;;;;;;5.30;3.60;;;0.20;99.90;;;;;;4865803;29;20037;-80
2020/12/16 15:41:55;;;;;;;7.10;3.85;;;0.10;99.90;;;;;;4865447;29;20030;-80
2020/12/16 15:44:20;;;;;;;5.13;3.22;;;0.10;99.90;;;;;;4864463;29;20033;-80
2020/12/16 15:46:47;;;;;;;5.70;3.70;;;0.10;99.90;;;;;;4864300;29;20029;-80
2020/12/16 15:49:14;;;;;;;4.90;3.42;;;0.10;99.90;;;;;;4866620;29;20027;-80
2020/12/16 15:51:39;;;;;;;6.95;3.67;;;0.10;99.90;;;;;;4863671;29;20390;-80
2020/12/16 15:54:05;;;;;;;5.03;3.33;;;0.20;99.90;;;;;;4861397;29;20043;-81
2020/12/16 15:56:31;;;;;;;7.00;4.35;;;0.10;99.90;;;;;;4865487;29;20108;-80
2020/12/16 15:58:57;;;;;;;5.88;4.10;;;0.10;99.90;;;;;;4865919;29;20029;-74
2020/12/16 16:01:23;;;;;;;5.68;3.80;;;0.10;99.90;;;;;;4866661;29;20069;-74
2020/12/16 16:03:48;;;;;;;5.90;3.78;;;0.20;99.90;;;;;;4863496;29;20048;-74
2020/12/16 16:06:14;;;;;;;5.10;3.35;;;0.20;99.90;;;;;;4863286;29;20441;-74
2020/12/16 16:08:40;;;;;;;5.90;3.75;;;0.20;99.90;;;;;;4861939;29;20082;-74
2020/12/16 16:11:06;;;;;;;8.07;3.60;;;0.20;99.90;;;;;;4869770;29;20032;-74
2020/12/16 16:13:33;;;;;;;6.05;3.67;;;0.10;99.90;;;;;;4864074;29;20030;-74
2020/12/16 16:15:58;;;;;;;5.88;3.50;;;0.10;99.90;;;;;;4865753;29;20447;-76
2020/12/16 16:18:24;;;;;;;6.13;4.03;;;0.10;99.90;;;;;;4865760;29;20112;-79
2020/12/16 16:20:50;;;;;;;5.22;3.55;;;0.10;99.90;;;;;;4865483;29;20068;-80
2020/12/16 16:23:16;;;;;;;5.07;3.55;;;0.10;99.90;;;;;;4869873;29;20021;-80
2020/12/16 16:25:42;;;;;;;4.97;3.60;;;0.10;99.90;;;;;;4859818;29;20025;-81
2020/12/16 16:28:08;;;;;;;6.00;3.88;;;0.00;99.90;;;;;;4859767;29;20094;-81
2020/12/16 16:30:34;;;;;;;5.65;3.88;;;0.00;99.90;;;;;;4865346;29;20389;-80
2020/12/16 16:33:01;;;;;;;6.00;3.75;;;0.10;99.90;;;;;;4860202;29;20057;-79
2020/12/16 16:35:30;;;;;;;5.65;4.10;;;0.10;99.90;;;;;;4863806;29;20088;-80
2020/12/16 16:37:57;;;;;;;5.45;3.53;;;0.10;99.90;;;;;;4872389;29;20731;-79
2020/12/16 16:40:22;;;;;;;5.70;3.85;;;0.10;99.90;;;;;;4874304;29;20041;-79
2020/12/16 16:42:48;;;;;;;5.70;3.92;;;0.10;99.90;;;;;;4867599;29;20028;-78
2020/12/16 16:45:14;;;;;;;5.63;3.63;;;0.00;99.90;;;;;;4878366;29;20036;-79
2020/12/16 16:47:41;;;;;;;5.72;3.72;;;0.10;99.90;;;;;;4878868;29;20422;-78
2020/12/16 16:50:09;;;;;;;5.10;3.85;;;0.10;99.90;;;;;;4869991;29;20025;-74
2020/12/16 16:52:35;;;;;;;4.28;3.28;;;0.10;99.90;;;;;;4865786;29;20532;-75
2020/12/16 16:55:00;;;;;;;5.35;3.75;;;0.10;99.90;;;;;;4871288;29;20111;-79
2020/12/16 16:57:26;;;;;;;4.85;3.42;;;0.00;99.90;;;;;;4874973;29;20120;-79
2020/12/16 16:59:52;;;;;;;4.95;2.97;;;0.10;99.90;;;;;;4866291;29;20025;-78
2020/12/16 17:02:18;;;;;;;6.30;4.00;;;0.30;99.90;;;;;;4866358;29;20097;-77
2020/12/16 17:04:45;;;;;;;5.18;3.70;;;1.20;99.90;;;;;;4874860;29;20029;-78
2020/12/16 17:07:14;;;;;;;5.88;3.97;;;1.10;99.90;;;;;;4871183;29;20037;-77
2020/12/16 17:09:41;;;;;;;4.88;3.58;;;0.80;99.90;;;;;;4867266;29;20556;-78
2020/12/16 17:12:10;;;;;;;4.85;3.63;;;0.50;99.90;;;;;;4870309;29;20029;-78
2020/12/16 17:14:36;;;;;;;5.13;3.50;;;0.40;99.90;;;;;;4874680;29;20060;-78
2020/12/16 17:17:02;;;;;;;5.55;3.05;;;0.30;99.90;;;;;;4860772;29;20030;-77
2020/12/16 17:19:28;;;;;;;3.72;2.88;;;0.20;99.90;;;;;;4872085;29;20052;-78
2020/12/16 17:21:53;;;;;;;6.78;4.07;;;0.20;99.90;;;;;;4877561;29;20025;-78
2020/12/16 17:24:19;;;;;;;5.50;3.40;;;0.10;99.90;;;;;;4867885;29;20094;-78
2020/12/16 17:26:45;;;;;;;6.22;3.50;;;0.20;99.90;;;;;;4874650;29;20586;-78
2020/12/16 17:29:12;;;;;;;4.63;3.13;;;0.20;99.90;;;;;;4866597;29;20108;-78
2020/12/16 17:31:38;;;;;;;5.18;3.35;;;0.10;99.90;;;;;;4878292;29;20029;-78
2020/12/16 17:34:05;;;;;;;4.35;3.00;;;0.10;99.90;;;;;;4860288;29;20093;-78
2020/12/16 17:36:31;;;;;;;4.75;3.30;;;0.10;99.90;;;;;;4870617;29;20553;-77
2020/12/16 17:38:58;;;;;;;4.68;3.58;;;0.10;99.90;;;;;;4874747;29;20026;-77
2020/12/16 17:41:25;;;;;;;6.65;4.00;;;0.10;99.90;;;;;;4870822;29;20501;-77
2020/12/16 17:43:51;;;;;;;5.75;3.83;;;0.10;99.90;;;;;;4878409;29;20029;-77
2020/12/16 17:46:18;;;;;;;5.20;3.28;;;0.10;99.90;;;;;;4870762;29;20021;-77
2020/12/16 17:48:45;;;;;;;6.35;3.63;;;0.20;99.90;;;;;;4859861;29;20030;-82
2020/12/16 17:51:12;;;;;;;5.65;3.67;;;0.10;99.90;;;;;;4859129;29;20021;-81
2020/12/16 17:53:38;;;;;;;5.88;3.50;;;0.30;99.90;;;;;;4859569;29;20029;-80
2020/12/16 17:56:06;;;;;;;4.93;3.17;;;0.30;99.90;;;;;;4863989;29;20033;-79
2020/12/16 17:58:33;;;;;;;9.63;4.70;;;0.30;99.90;;;;;;4867868;29;20033;-80
2020/12/16 18:00:59;;;;;;;5.65;3.38;;;0.30;99.90;;;;;;4859460;29;20037;-79
2020/12/16 18:03:25;;;;;;;4.50;2.97;;;0.20;99.90;;;;;;4859724;29;20034;-82
2020/12/16 18:05:51;;;;;;;5.57;3.95;;;0.20;99.90;;;;;;4860419;29;20478;-80
2020/12/16 18:08:18;;;;;;;3.47;2.58;;;0.20;99.90;;;;;;4888310;29;20077;-83
2020/12/16 18:10:47;;;;;;;3.67;2.63;;;0.20;99.90;;;;;;4865656;29;20030;-83
2020/12/16 18:13:14;;;;;;;3.60;2.67;;;0.10;99.90;;;;;;4882819;29;20029;-81
2020/12/16 18:15:40;;;;;;;3.55;2.40;;;0.10;99.90;;;;;;4872979;29;20054;-81
2020/12/16 18:18:07;;;;;;;3.60;2.53;;;0.10;99.90;;;;;;4884449;29;20037;-82
2020/12/16 18:20:33;;;;;;;2.92;2.20;;;0.10;99.90;;;;;;4877258;29;20504;-82